<?xml version="1.0" encoding="UTF-8" standalone="no" ?>
<gpx xmlns="http://www.topografix.com/GPX/1/1" xmlns:xsi="http://www.w3.org/2001/XMLSchema-instance" xsi:schemaLocation="http://www.topografix.com/GPX/1/1 http://www.topografix.com/GPX/1/1/gpx.xsd" version="1.1" creator="VisuGPX - https://www.visugpx.com">
  <metadata>
    <name>2016-09-04 GÉRARDMER</name>
    <desc><![CDATA[2016-09-04 GÉRARDMER, par temps magnifique, un vue splendide sur le lac et quelques perles sur le parcours.]]></desc>
  </metadata>
  <trk>
    <name><![CDATA[OR-8037723--Gérardmer:2016-09-04 GÉRARDMER]]></name>
    <trkseg>
      <trkpt lat="48.06436" lon="6.85242">
        <ele>664</ele>
        <time>2017-10-23T19:55:53Z</time>
      </trkpt>
      <trkpt lat="48.06388" lon="6.85171">
        <ele>681</ele>
        <time>2017-10-23T19:57:53Z</time>
      </trkpt>
      <trkpt lat="48.06347" lon="6.85134">
        <ele>703</ele>
        <time>2017-10-23T19:59:53Z</time>
      </trkpt>
      <trkpt lat="48.0639" lon="6.8509">
        <ele>708</ele>
        <time>2017-10-23T20:01:53Z</time>
      </trkpt>
      <trkpt lat="48.0635" lon="6.85082">
        <ele>725</ele>
        <time>2017-10-23T20:03:53Z</time>
      </trkpt>
      <trkpt lat="48.06273" lon="6.85035">
        <ele>744</ele>
        <time>2017-10-23T20:05:53Z</time>
      </trkpt>
      <trkpt lat="48.06223" lon="6.84991">
        <ele>759</ele>
        <time>2017-10-23T20:07:53Z</time>
      </trkpt>
      <trkpt lat="48.06174" lon="6.84958">
        <ele>768</ele>
        <time>2017-10-23T20:09:53Z</time>
      </trkpt>
      <trkpt lat="48.06203" lon="6.84956">
        <ele>770</ele>
        <time>2017-10-23T20:11:53Z</time>
      </trkpt>
      <trkpt lat="48.06195" lon="6.84919">
        <ele>783</ele>
        <time>2017-10-23T20:13:53Z</time>
      </trkpt>
      <trkpt lat="48.06211" lon="6.84896">
        <ele>788</ele>
        <time>2017-10-23T20:15:53Z</time>
      </trkpt>
      <trkpt lat="48.06215" lon="6.84848">
        <ele>800</ele>
        <time>2017-10-23T20:17:53Z</time>
      </trkpt>
      <trkpt lat="48.06203" lon="6.84806">
        <ele>810</ele>
        <time>2017-10-23T20:19:53Z</time>
      </trkpt>
      <trkpt lat="48.06193" lon="6.84736">
        <ele>827</ele>
        <time>2017-10-23T20:21:53Z</time>
      </trkpt>
      <trkpt lat="48.06226" lon="6.84605">
        <ele>859</ele>
        <time>2017-10-23T20:23:53Z</time>
      </trkpt>
      <trkpt lat="48.06256" lon="6.84577">
        <ele>865</ele>
        <time>2017-10-23T20:25:53Z</time>
      </trkpt>
      <trkpt lat="48.06266" lon="6.84532">
        <ele>874</ele>
        <time>2017-10-23T20:27:53Z</time>
      </trkpt>
      <trkpt lat="48.06266" lon="6.84415">
        <ele>889</ele>
        <time>2017-10-23T20:29:53Z</time>
      </trkpt>
      <trkpt lat="48.06339" lon="6.84417">
        <ele>886</ele>
        <time>2017-10-23T20:31:53Z</time>
      </trkpt>
      <trkpt lat="48.06386" lon="6.84395">
        <ele>880</ele>
        <time>2017-10-23T20:33:53Z</time>
      </trkpt>
      <trkpt lat="48.06285" lon="6.84394">
        <ele>888</ele>
        <time>2017-10-23T20:35:53Z</time>
      </trkpt>
      <trkpt lat="48.06221" lon="6.84398">
        <ele>888</ele>
        <time>2017-10-23T20:37:53Z</time>
      </trkpt>
      <trkpt lat="48.06109" lon="6.84387">
        <ele>887</ele>
        <time>2017-10-23T20:39:53Z</time>
      </trkpt>
      <trkpt lat="48.06073" lon="6.84422">
        <ele>884</ele>
        <time>2017-10-23T20:41:53Z</time>
      </trkpt>
      <trkpt lat="48.06019" lon="6.84429">
        <ele>876</ele>
        <time>2017-10-23T20:43:53Z</time>
      </trkpt>
      <trkpt lat="48.05954" lon="6.84365">
        <ele>876</ele>
        <time>2017-10-23T20:45:53Z</time>
      </trkpt>
      <trkpt lat="48.0589" lon="6.84287">
        <ele>875</ele>
        <time>2017-10-23T20:47:53Z</time>
      </trkpt>
      <trkpt lat="48.05859" lon="6.84256">
        <ele>874</ele>
        <time>2017-10-23T20:49:53Z</time>
      </trkpt>
      <trkpt lat="48.05845" lon="6.84237">
        <ele>873</ele>
        <time>2017-10-23T20:51:53Z</time>
      </trkpt>
      <trkpt lat="48.05845" lon="6.84096">
        <ele>876</ele>
        <time>2017-10-23T20:53:53Z</time>
      </trkpt>
      <trkpt lat="48.05854" lon="6.84027">
        <ele>872</ele>
        <time>2017-10-23T20:55:53Z</time>
      </trkpt>
      <trkpt lat="48.05851" lon="6.83965">
        <ele>867</ele>
        <time>2017-10-23T20:57:53Z</time>
      </trkpt>
      <trkpt lat="48.05799" lon="6.84028">
        <ele>872</ele>
        <time>2017-10-23T20:59:53Z</time>
      </trkpt>
      <trkpt lat="48.0566" lon="6.83893">
        <ele>877</ele>
        <time>2017-10-23T21:01:53Z</time>
      </trkpt>
      <trkpt lat="48.05512" lon="6.8392">
        <ele>883</ele>
        <time>2017-10-23T21:03:53Z</time>
      </trkpt>
      <trkpt lat="48.05499" lon="6.83931">
        <ele>883</ele>
        <time>2017-10-23T21:05:53Z</time>
      </trkpt>
      <trkpt lat="48.05474" lon="6.83945">
        <ele>880</ele>
        <time>2017-10-23T21:07:53Z</time>
      </trkpt>
      <trkpt lat="48.05454" lon="6.83945">
        <ele>878</ele>
        <time>2017-10-23T21:09:53Z</time>
      </trkpt>
      <trkpt lat="48.05423" lon="6.83884">
        <ele>887</ele>
        <time>2017-10-23T21:11:53Z</time>
      </trkpt>
      <trkpt lat="48.05348" lon="6.83848">
        <ele>898</ele>
        <time>2017-10-23T21:13:53Z</time>
      </trkpt>
      <trkpt lat="48.05295" lon="6.8385">
        <ele>901</ele>
        <time>2017-10-23T21:15:53Z</time>
      </trkpt>
      <trkpt lat="48.05223" lon="6.83857">
        <ele>902</ele>
        <time>2017-10-23T21:17:53Z</time>
      </trkpt>
      <trkpt lat="48.05197" lon="6.83858">
        <ele>902</ele>
        <time>2017-10-23T21:19:53Z</time>
      </trkpt>
      <trkpt lat="48.05174" lon="6.83851">
        <ele>903</ele>
        <time>2017-10-23T21:21:53Z</time>
      </trkpt>
      <trkpt lat="48.05161" lon="6.83838">
        <ele>904</ele>
        <time>2017-10-23T21:23:53Z</time>
      </trkpt>
      <trkpt lat="48.05158" lon="6.83815">
        <ele>906</ele>
        <time>2017-10-23T21:25:53Z</time>
      </trkpt>
      <trkpt lat="48.05158" lon="6.8375">
        <ele>913</ele>
        <time>2017-10-23T21:27:53Z</time>
      </trkpt>
      <trkpt lat="48.05152" lon="6.83717">
        <ele>915</ele>
        <time>2017-10-23T21:29:53Z</time>
      </trkpt>
      <trkpt lat="48.05146" lon="6.83663">
        <ele>919</ele>
        <time>2017-10-23T21:31:53Z</time>
      </trkpt>
      <trkpt lat="48.05144" lon="6.83655">
        <ele>920</ele>
        <time>2017-10-23T21:33:53Z</time>
      </trkpt>
      <trkpt lat="48.05151" lon="6.83653">
        <ele>922</ele>
        <time>2017-10-23T21:35:53Z</time>
      </trkpt>
      <trkpt lat="48.05164" lon="6.8366">
        <ele>923</ele>
        <time>2017-10-23T21:37:53Z</time>
      </trkpt>
      <trkpt lat="48.05175" lon="6.83671">
        <ele>924</ele>
        <time>2017-10-23T21:39:53Z</time>
      </trkpt>
      <trkpt lat="48.05193" lon="6.83684">
        <ele>925</ele>
        <time>2017-10-23T21:41:53Z</time>
      </trkpt>
      <trkpt lat="48.05185" lon="6.83667">
        <ele>925</ele>
        <time>2017-10-23T21:43:53Z</time>
      </trkpt>
      <trkpt lat="48.05179" lon="6.83652">
        <ele>927</ele>
        <time>2017-10-23T21:45:53Z</time>
      </trkpt>
      <trkpt lat="48.05178" lon="6.83636">
        <ele>928</ele>
        <time>2017-10-23T21:47:53Z</time>
      </trkpt>
      <trkpt lat="48.0518" lon="6.83617">
        <ele>931</ele>
        <time>2017-10-23T21:49:53Z</time>
      </trkpt>
      <trkpt lat="48.05181" lon="6.83602">
        <ele>933</ele>
        <time>2017-10-23T21:51:53Z</time>
      </trkpt>
      <trkpt lat="48.05181" lon="6.83589">
        <ele>935</ele>
        <time>2017-10-23T21:53:53Z</time>
      </trkpt>
      <trkpt lat="48.05179" lon="6.83574">
        <ele>937</ele>
        <time>2017-10-23T21:55:53Z</time>
      </trkpt>
      <trkpt lat="48.05172" lon="6.83552">
        <ele>939</ele>
        <time>2017-10-23T21:57:53Z</time>
      </trkpt>
      <trkpt lat="48.0516" lon="6.83539">
        <ele>940</ele>
        <time>2017-10-23T21:59:53Z</time>
      </trkpt>
      <trkpt lat="48.05148" lon="6.8353">
        <ele>942</ele>
        <time>2017-10-23T22:01:53Z</time>
      </trkpt>
      <trkpt lat="48.05135" lon="6.83523">
        <ele>943</ele>
        <time>2017-10-23T22:03:53Z</time>
      </trkpt>
      <trkpt lat="48.05111" lon="6.83517">
        <ele>944</ele>
        <time>2017-10-23T22:05:53Z</time>
      </trkpt>
      <trkpt lat="48.05065" lon="6.8351">
        <ele>946</ele>
        <time>2017-10-23T22:07:53Z</time>
      </trkpt>
      <trkpt lat="48.0504" lon="6.83508">
        <ele>945</ele>
        <time>2017-10-23T22:09:53Z</time>
      </trkpt>
      <trkpt lat="48.05009" lon="6.83506">
        <ele>944</ele>
        <time>2017-10-23T22:11:53Z</time>
      </trkpt>
      <trkpt lat="48.04987" lon="6.83508">
        <ele>942</ele>
        <time>2017-10-23T22:13:53Z</time>
      </trkpt>
      <trkpt lat="48.04962" lon="6.83508">
        <ele>940</ele>
        <time>2017-10-23T22:15:53Z</time>
      </trkpt>
      <trkpt lat="48.04945" lon="6.83504">
        <ele>939</ele>
        <time>2017-10-23T22:17:53Z</time>
      </trkpt>
      <trkpt lat="48.04921" lon="6.83503">
        <ele>937</ele>
        <time>2017-10-23T22:19:53Z</time>
      </trkpt>
      <trkpt lat="48.04914" lon="6.83497">
        <ele>937</ele>
        <time>2017-10-23T22:21:53Z</time>
      </trkpt>
      <trkpt lat="48.04907" lon="6.83487">
        <ele>938</ele>
        <time>2017-10-23T22:23:53Z</time>
      </trkpt>
      <trkpt lat="48.04924" lon="6.83487">
        <ele>940</ele>
        <time>2017-10-23T22:25:53Z</time>
      </trkpt>
      <trkpt lat="48.04958" lon="6.83464">
        <ele>946</ele>
        <time>2017-10-23T22:27:53Z</time>
      </trkpt>
      <trkpt lat="48.04968" lon="6.83461">
        <ele>947</ele>
        <time>2017-10-23T22:29:53Z</time>
      </trkpt>
      <trkpt lat="48.04985" lon="6.83457">
        <ele>948</ele>
        <time>2017-10-23T22:31:53Z</time>
      </trkpt>
      <trkpt lat="48.05002" lon="6.83455">
        <ele>950</ele>
        <time>2017-10-23T22:33:53Z</time>
      </trkpt>
      <trkpt lat="48.0501" lon="6.83448">
        <ele>951</ele>
        <time>2017-10-23T22:35:53Z</time>
      </trkpt>
      <trkpt lat="48.05022" lon="6.83442">
        <ele>952</ele>
        <time>2017-10-23T22:37:53Z</time>
      </trkpt>
      <trkpt lat="48.05032" lon="6.83423">
        <ele>954</ele>
        <time>2017-10-23T22:39:53Z</time>
      </trkpt>
      <trkpt lat="48.05032" lon="6.8341">
        <ele>955</ele>
        <time>2017-10-23T22:41:53Z</time>
      </trkpt>
      <trkpt lat="48.05035" lon="6.83401">
        <ele>956</ele>
        <time>2017-10-23T22:43:53Z</time>
      </trkpt>
      <trkpt lat="48.05038" lon="6.83378">
        <ele>958</ele>
        <time>2017-10-23T22:45:53Z</time>
      </trkpt>
      <trkpt lat="48.05021" lon="6.8336">
        <ele>959</ele>
        <time>2017-10-23T22:47:53Z</time>
      </trkpt>
      <trkpt lat="48.0501" lon="6.83349">
        <ele>960</ele>
        <time>2017-10-23T22:49:53Z</time>
      </trkpt>
      <trkpt lat="48.05003" lon="6.83334">
        <ele>961</ele>
        <time>2017-10-23T22:51:53Z</time>
      </trkpt>
      <trkpt lat="48.04973" lon="6.83306">
        <ele>964</ele>
        <time>2017-10-23T22:53:53Z</time>
      </trkpt>
      <trkpt lat="48.04942" lon="6.83291">
        <ele>965</ele>
        <time>2017-10-23T22:55:53Z</time>
      </trkpt>
      <trkpt lat="48.04916" lon="6.83247">
        <ele>968</ele>
        <time>2017-10-23T22:57:53Z</time>
      </trkpt>
      <trkpt lat="48.04897" lon="6.83204">
        <ele>972</ele>
        <time>2017-10-23T22:59:53Z</time>
      </trkpt>
      <trkpt lat="48.0488" lon="6.8317">
        <ele>973</ele>
        <time>2017-10-23T23:01:53Z</time>
      </trkpt>
      <trkpt lat="48.04861" lon="6.83122">
        <ele>975</ele>
        <time>2017-10-23T23:03:53Z</time>
      </trkpt>
      <trkpt lat="48.04846" lon="6.83081">
        <ele>977</ele>
        <time>2017-10-23T23:05:53Z</time>
      </trkpt>
      <trkpt lat="48.04821" lon="6.83048">
        <ele>978</ele>
        <time>2017-10-23T23:07:53Z</time>
      </trkpt>
      <trkpt lat="48.04791" lon="6.83025">
        <ele>976</ele>
        <time>2017-10-23T23:09:53Z</time>
      </trkpt>
      <trkpt lat="48.04747" lon="6.82957">
        <ele>976</ele>
        <time>2017-10-23T23:11:53Z</time>
      </trkpt>
      <trkpt lat="48.04682" lon="6.82836">
        <ele>981</ele>
        <time>2017-10-23T23:13:53Z</time>
      </trkpt>
      <trkpt lat="48.04643" lon="6.82782">
        <ele>984</ele>
        <time>2017-10-23T23:15:53Z</time>
      </trkpt>
      <trkpt lat="48.04617" lon="6.82742">
        <ele>985</ele>
        <time>2017-10-23T23:17:53Z</time>
      </trkpt>
      <trkpt lat="48.04598" lon="6.8268">
        <ele>984</ele>
        <time>2017-10-23T23:19:53Z</time>
      </trkpt>
      <trkpt lat="48.04591" lon="6.82638">
        <ele>984</ele>
        <time>2017-10-23T23:21:53Z</time>
      </trkpt>
      <trkpt lat="48.04599" lon="6.82574">
        <ele>984</ele>
        <time>2017-10-23T23:23:53Z</time>
      </trkpt>
      <trkpt lat="48.04617" lon="6.82526">
        <ele>983</ele>
        <time>2017-10-23T23:25:53Z</time>
      </trkpt>
      <trkpt lat="48.04639" lon="6.82474">
        <ele>983</ele>
        <time>2017-10-23T23:27:53Z</time>
      </trkpt>
      <trkpt lat="48.04656" lon="6.82418">
        <ele>982</ele>
        <time>2017-10-23T23:29:53Z</time>
      </trkpt>
      <trkpt lat="48.04671" lon="6.82361">
        <ele>978</ele>
        <time>2017-10-23T23:31:53Z</time>
      </trkpt>
      <trkpt lat="48.04681" lon="6.823">
        <ele>975</ele>
        <time>2017-10-23T23:33:53Z</time>
      </trkpt>
      <trkpt lat="48.04678" lon="6.8223">
        <ele>973</ele>
        <time>2017-10-23T23:35:53Z</time>
      </trkpt>
      <trkpt lat="48.04672" lon="6.82163">
        <ele>974</ele>
        <time>2017-10-23T23:37:53Z</time>
      </trkpt>
      <trkpt lat="48.04668" lon="6.82088">
        <ele>976</ele>
        <time>2017-10-23T23:39:53Z</time>
      </trkpt>
      <trkpt lat="48.04663" lon="6.82013">
        <ele>978</ele>
        <time>2017-10-23T23:41:53Z</time>
      </trkpt>
      <trkpt lat="48.04652" lon="6.81918">
        <ele>977</ele>
        <time>2017-10-23T23:43:53Z</time>
      </trkpt>
      <trkpt lat="48.04661" lon="6.81861">
        <ele>979</ele>
        <time>2017-10-23T23:45:53Z</time>
      </trkpt>
      <trkpt lat="48.04667" lon="6.81772">
        <ele>981</ele>
        <time>2017-10-23T23:47:53Z</time>
      </trkpt>
      <trkpt lat="48.04676" lon="6.81724">
        <ele>982</ele>
        <time>2017-10-23T23:49:53Z</time>
      </trkpt>
      <trkpt lat="48.04704" lon="6.81669">
        <ele>986</ele>
        <time>2017-10-23T23:51:53Z</time>
      </trkpt>
      <trkpt lat="48.04725" lon="6.81624">
        <ele>986</ele>
        <time>2017-10-23T23:53:53Z</time>
      </trkpt>
      <trkpt lat="48.04739" lon="6.81595">
        <ele>987</ele>
        <time>2017-10-23T23:55:53Z</time>
      </trkpt>
      <trkpt lat="48.04761" lon="6.8156">
        <ele>985</ele>
        <time>2017-10-23T23:57:53Z</time>
      </trkpt>
      <trkpt lat="48.04798" lon="6.81502">
        <ele>980</ele>
        <time>2017-10-23T23:59:53Z</time>
      </trkpt>
      <trkpt lat="48.04828" lon="6.81464">
        <ele>980</ele>
        <time>2017-10-24T00:01:53Z</time>
      </trkpt>
      <trkpt lat="48.04852" lon="6.81441">
        <ele>980</ele>
        <time>2017-10-24T00:03:53Z</time>
      </trkpt>
      <trkpt lat="48.04881" lon="6.81423">
        <ele>980</ele>
        <time>2017-10-24T00:05:53Z</time>
      </trkpt>
      <trkpt lat="48.04902" lon="6.81409">
        <ele>982</ele>
        <time>2017-10-24T00:07:53Z</time>
      </trkpt>
      <trkpt lat="48.04883" lon="6.81373">
        <ele>979</ele>
        <time>2017-10-24T00:09:53Z</time>
      </trkpt>
      <trkpt lat="48.04869" lon="6.81328">
        <ele>977</ele>
        <time>2017-10-24T00:11:53Z</time>
      </trkpt>
      <trkpt lat="48.04847" lon="6.8126">
        <ele>976</ele>
        <time>2017-10-24T00:13:53Z</time>
      </trkpt>
      <trkpt lat="48.04831" lon="6.81204">
        <ele>978</ele>
        <time>2017-10-24T00:15:53Z</time>
      </trkpt>
      <trkpt lat="48.04811" lon="6.81145">
        <ele>979</ele>
        <time>2017-10-24T00:17:53Z</time>
      </trkpt>
      <trkpt lat="48.0479" lon="6.81101">
        <ele>977</ele>
        <time>2017-10-24T00:19:53Z</time>
      </trkpt>
      <trkpt lat="48.04773" lon="6.81056">
        <ele>978</ele>
        <time>2017-10-24T00:21:53Z</time>
      </trkpt>
      <trkpt lat="48.04742" lon="6.80987">
        <ele>977</ele>
        <time>2017-10-24T00:23:53Z</time>
      </trkpt>
      <trkpt lat="48.04721" lon="6.80925">
        <ele>976</ele>
        <time>2017-10-24T00:25:53Z</time>
      </trkpt>
      <trkpt lat="48.04709" lon="6.80849">
        <ele>972</ele>
        <time>2017-10-24T00:27:53Z</time>
      </trkpt>
      <trkpt lat="48.04705" lon="6.8079">
        <ele>968</ele>
        <time>2017-10-24T00:29:53Z</time>
      </trkpt>
      <trkpt lat="48.04719" lon="6.80727">
        <ele>966</ele>
        <time>2017-10-24T00:31:53Z</time>
      </trkpt>
      <trkpt lat="48.04732" lon="6.80658">
        <ele>964</ele>
        <time>2017-10-24T00:33:53Z</time>
      </trkpt>
      <trkpt lat="48.04741" lon="6.80602">
        <ele>962</ele>
        <time>2017-10-24T00:35:53Z</time>
      </trkpt>
      <trkpt lat="48.0476" lon="6.80563">
        <ele>962</ele>
        <time>2017-10-24T00:37:53Z</time>
      </trkpt>
      <trkpt lat="48.04786" lon="6.80531">
        <ele>963</ele>
        <time>2017-10-24T00:39:53Z</time>
      </trkpt>
      <trkpt lat="48.04803" lon="6.8047">
        <ele>960</ele>
        <time>2017-10-24T00:41:53Z</time>
      </trkpt>
      <trkpt lat="48.04811" lon="6.80403">
        <ele>956</ele>
        <time>2017-10-24T00:43:53Z</time>
      </trkpt>
      <trkpt lat="48.04829" lon="6.80345">
        <ele>953</ele>
        <time>2017-10-24T00:45:53Z</time>
      </trkpt>
      <trkpt lat="48.04811" lon="6.80318">
        <ele>949</ele>
        <time>2017-10-24T00:47:53Z</time>
      </trkpt>
      <trkpt lat="48.04773" lon="6.80287">
        <ele>943</ele>
        <time>2017-10-24T00:49:53Z</time>
      </trkpt>
      <trkpt lat="48.04743" lon="6.80273">
        <ele>940</ele>
        <time>2017-10-24T00:51:53Z</time>
      </trkpt>
      <trkpt lat="48.04697" lon="6.80277">
        <ele>937</ele>
        <time>2017-10-24T00:53:53Z</time>
      </trkpt>
      <trkpt lat="48.04674" lon="6.80271">
        <ele>935</ele>
        <time>2017-10-24T00:55:53Z</time>
      </trkpt>
      <trkpt lat="48.04638" lon="6.80245">
        <ele>933</ele>
        <time>2017-10-24T00:57:53Z</time>
      </trkpt>
      <trkpt lat="48.04618" lon="6.8023">
        <ele>933</ele>
        <time>2017-10-24T00:59:53Z</time>
      </trkpt>
      <trkpt lat="48.04609" lon="6.80209">
        <ele>934</ele>
        <time>2017-10-24T01:01:53Z</time>
      </trkpt>
      <trkpt lat="48.04599" lon="6.80178">
        <ele>936</ele>
        <time>2017-10-24T01:03:53Z</time>
      </trkpt>
      <trkpt lat="48.04582" lon="6.80148">
        <ele>940</ele>
        <time>2017-10-24T01:05:53Z</time>
      </trkpt>
      <trkpt lat="48.04577" lon="6.80125">
        <ele>943</ele>
        <time>2017-10-24T01:07:53Z</time>
      </trkpt>
      <trkpt lat="48.04574" lon="6.80075">
        <ele>949</ele>
        <time>2017-10-24T01:09:53Z</time>
      </trkpt>
      <trkpt lat="48.04578" lon="6.80045">
        <ele>951</ele>
        <time>2017-10-24T01:11:53Z</time>
      </trkpt>
      <trkpt lat="48.04566" lon="6.8">
        <ele>958</ele>
        <time>2017-10-24T01:13:53Z</time>
      </trkpt>
      <trkpt lat="48.04542" lon="6.79916">
        <ele>965</ele>
        <time>2017-10-24T01:15:53Z</time>
      </trkpt>
      <trkpt lat="48.04526" lon="6.79856">
        <ele>968</ele>
        <time>2017-10-24T01:17:53Z</time>
      </trkpt>
      <trkpt lat="48.04505" lon="6.79802">
        <ele>968</ele>
        <time>2017-10-24T01:19:53Z</time>
      </trkpt>
      <trkpt lat="48.04487" lon="6.79732">
        <ele>966</ele>
        <time>2017-10-24T01:21:53Z</time>
      </trkpt>
      <trkpt lat="48.0447" lon="6.79683">
        <ele>963</ele>
        <time>2017-10-24T01:23:53Z</time>
      </trkpt>
      <trkpt lat="48.04458" lon="6.7964">
        <ele>959</ele>
        <time>2017-10-24T01:25:53Z</time>
      </trkpt>
      <trkpt lat="48.04441" lon="6.79587">
        <ele>955</ele>
        <time>2017-10-24T01:27:53Z</time>
      </trkpt>
      <trkpt lat="48.04425" lon="6.79543">
        <ele>951</ele>
        <time>2017-10-24T01:29:53Z</time>
      </trkpt>
      <trkpt lat="48.04401" lon="6.79488">
        <ele>947</ele>
        <time>2017-10-24T01:31:53Z</time>
      </trkpt>
      <trkpt lat="48.04382" lon="6.79454">
        <ele>948</ele>
        <time>2017-10-24T01:33:53Z</time>
      </trkpt>
      <trkpt lat="48.04371" lon="6.79426">
        <ele>948</ele>
        <time>2017-10-24T01:35:53Z</time>
      </trkpt>
      <trkpt lat="48.04367" lon="6.79395">
        <ele>948</ele>
        <time>2017-10-24T01:37:53Z</time>
      </trkpt>
      <trkpt lat="48.04366" lon="6.79352">
        <ele>946</ele>
        <time>2017-10-24T01:39:53Z</time>
      </trkpt>
      <trkpt lat="48.04362" lon="6.79316">
        <ele>944</ele>
        <time>2017-10-24T01:41:53Z</time>
      </trkpt>
      <trkpt lat="48.0435" lon="6.7926">
        <ele>943</ele>
        <time>2017-10-24T01:43:53Z</time>
      </trkpt>
      <trkpt lat="48.04333" lon="6.79219">
        <ele>944</ele>
        <time>2017-10-24T01:45:53Z</time>
      </trkpt>
      <trkpt lat="48.04319" lon="6.79177">
        <ele>943</ele>
        <time>2017-10-24T01:47:53Z</time>
      </trkpt>
      <trkpt lat="48.04224" lon="6.79267">
        <ele>952</ele>
        <time>2017-10-24T01:49:53Z</time>
      </trkpt>
      <trkpt lat="48.04226" lon="6.79277">
        <ele>952</ele>
        <time>2017-10-24T01:51:53Z</time>
      </trkpt>
      <trkpt lat="48.04209" lon="6.79257">
        <ele>950</ele>
        <time>2017-10-24T01:53:53Z</time>
      </trkpt>
      <trkpt lat="48.04218" lon="6.79244">
        <ele>952</ele>
        <time>2017-10-24T01:55:53Z</time>
      </trkpt>
      <trkpt lat="48.04185" lon="6.7919">
        <ele>953</ele>
        <time>2017-10-24T01:57:53Z</time>
      </trkpt>
      <trkpt lat="48.04158" lon="6.79162">
        <ele>953</ele>
        <time>2017-10-24T01:59:53Z</time>
      </trkpt>
      <trkpt lat="48.04153" lon="6.79126">
        <ele>954</ele>
        <time>2017-10-24T02:01:53Z</time>
      </trkpt>
      <trkpt lat="48.04132" lon="6.79101">
        <ele>952</ele>
        <time>2017-10-24T02:03:53Z</time>
      </trkpt>
      <trkpt lat="48.04101" lon="6.79082">
        <ele>948</ele>
        <time>2017-10-24T02:05:53Z</time>
      </trkpt>
      <trkpt lat="48.04083" lon="6.79059">
        <ele>947</ele>
        <time>2017-10-24T02:07:53Z</time>
      </trkpt>
      <trkpt lat="48.04068" lon="6.79009">
        <ele>946</ele>
        <time>2017-10-24T02:09:53Z</time>
      </trkpt>
      <trkpt lat="48.04059" lon="6.7898">
        <ele>943</ele>
        <time>2017-10-24T02:11:53Z</time>
      </trkpt>
      <trkpt lat="48.04065" lon="6.78958">
        <ele>945</ele>
        <time>2017-10-24T02:13:53Z</time>
      </trkpt>
      <trkpt lat="48.04076" lon="6.78935">
        <ele>948</ele>
        <time>2017-10-24T02:15:53Z</time>
      </trkpt>
      <trkpt lat="48.0409" lon="6.78919">
        <ele>949</ele>
        <time>2017-10-24T02:17:53Z</time>
      </trkpt>
      <trkpt lat="48.04104" lon="6.78906">
        <ele>948</ele>
        <time>2017-10-24T02:19:53Z</time>
      </trkpt>
      <trkpt lat="48.04121" lon="6.78915">
        <ele>948</ele>
        <time>2017-10-24T02:21:53Z</time>
      </trkpt>
      <trkpt lat="48.04113" lon="6.78885">
        <ele>947</ele>
        <time>2017-10-24T02:23:53Z</time>
      </trkpt>
      <trkpt lat="48.0411" lon="6.78865">
        <ele>945</ele>
        <time>2017-10-24T02:25:53Z</time>
      </trkpt>
      <trkpt lat="48.04096" lon="6.78852">
        <ele>945</ele>
        <time>2017-10-24T02:27:53Z</time>
      </trkpt>
      <trkpt lat="48.04084" lon="6.78834">
        <ele>943</ele>
        <time>2017-10-24T02:29:53Z</time>
      </trkpt>
      <trkpt lat="48.04062" lon="6.78824">
        <ele>938</ele>
        <time>2017-10-24T02:31:53Z</time>
      </trkpt>
      <trkpt lat="48.04046" lon="6.78806">
        <ele>933</ele>
        <time>2017-10-24T02:33:53Z</time>
      </trkpt>
      <trkpt lat="48.04038" lon="6.78765">
        <ele>930</ele>
        <time>2017-10-24T02:35:53Z</time>
      </trkpt>
      <trkpt lat="48.04034" lon="6.7873">
        <ele>927</ele>
        <time>2017-10-24T02:37:53Z</time>
      </trkpt>
      <trkpt lat="48.04025" lon="6.78701">
        <ele>924</ele>
        <time>2017-10-24T02:39:53Z</time>
      </trkpt>
      <trkpt lat="48.0398" lon="6.78636">
        <ele>915</ele>
        <time>2017-10-24T02:41:53Z</time>
      </trkpt>
      <trkpt lat="48.03961" lon="6.78622">
        <ele>911</ele>
        <time>2017-10-24T02:43:53Z</time>
      </trkpt>
      <trkpt lat="48.03938" lon="6.78585">
        <ele>907</ele>
        <time>2017-10-24T02:45:53Z</time>
      </trkpt>
      <trkpt lat="48.03929" lon="6.78555">
        <ele>907</ele>
        <time>2017-10-24T02:47:53Z</time>
      </trkpt>
      <trkpt lat="48.03919" lon="6.78519">
        <ele>908</ele>
        <time>2017-10-24T02:49:53Z</time>
      </trkpt>
      <trkpt lat="48.03913" lon="6.78478">
        <ele>906</ele>
        <time>2017-10-24T02:51:53Z</time>
      </trkpt>
      <trkpt lat="48.03895" lon="6.78397">
        <ele>900</ele>
        <time>2017-10-24T02:53:53Z</time>
      </trkpt>
      <trkpt lat="48.0389" lon="6.7834">
        <ele>900</ele>
        <time>2017-10-24T02:55:53Z</time>
      </trkpt>
      <trkpt lat="48.03879" lon="6.78283">
        <ele>895</ele>
        <time>2017-10-24T02:57:53Z</time>
      </trkpt>
      <trkpt lat="48.0388" lon="6.78242">
        <ele>894</ele>
        <time>2017-10-24T02:59:53Z</time>
      </trkpt>
      <trkpt lat="48.03893" lon="6.78228">
        <ele>897</ele>
        <time>2017-10-24T03:01:53Z</time>
      </trkpt>
      <trkpt lat="48.03887" lon="6.78294">
        <ele>897</ele>
        <time>2017-10-24T03:03:53Z</time>
      </trkpt>
      <trkpt lat="48.039" lon="6.78363">
        <ele>902</ele>
        <time>2017-10-24T03:05:53Z</time>
      </trkpt>
      <trkpt lat="48.0391" lon="6.78428">
        <ele>905</ele>
        <time>2017-10-24T03:07:53Z</time>
      </trkpt>
      <trkpt lat="48.03922" lon="6.78485">
        <ele>909</ele>
        <time>2017-10-24T03:09:53Z</time>
      </trkpt>
      <trkpt lat="48.03935" lon="6.78541">
        <ele>909</ele>
        <time>2017-10-24T03:11:53Z</time>
      </trkpt>
      <trkpt lat="48.03946" lon="6.78583">
        <ele>908</ele>
        <time>2017-10-24T03:13:53Z</time>
      </trkpt>
      <trkpt lat="48.03966" lon="6.78612">
        <ele>912</ele>
        <time>2017-10-24T03:15:53Z</time>
      </trkpt>
      <trkpt lat="48.03985" lon="6.78603">
        <ele>915</ele>
        <time>2017-10-24T03:17:53Z</time>
      </trkpt>
      <trkpt lat="48.03987" lon="6.78636">
        <ele>917</ele>
        <time>2017-10-24T03:19:53Z</time>
      </trkpt>
      <trkpt lat="48.04002" lon="6.78664">
        <ele>921</ele>
        <time>2017-10-24T03:21:53Z</time>
      </trkpt>
      <trkpt lat="48.04022" lon="6.78679">
        <ele>922</ele>
        <time>2017-10-24T03:23:53Z</time>
      </trkpt>
      <trkpt lat="48.04089" lon="6.787">
        <ele>927</ele>
        <time>2017-10-24T03:25:53Z</time>
      </trkpt>
      <trkpt lat="48.04141" lon="6.78717">
        <ele>929</ele>
        <time>2017-10-24T03:27:53Z</time>
      </trkpt>
      <trkpt lat="48.04184" lon="6.78726">
        <ele>929</ele>
        <time>2017-10-24T03:29:53Z</time>
      </trkpt>
      <trkpt lat="48.04216" lon="6.78752">
        <ele>930</ele>
        <time>2017-10-24T03:31:53Z</time>
      </trkpt>
      <trkpt lat="48.04242" lon="6.78772">
        <ele>928</ele>
        <time>2017-10-24T03:33:53Z</time>
      </trkpt>
      <trkpt lat="48.04257" lon="6.78793">
        <ele>926</ele>
        <time>2017-10-24T03:35:53Z</time>
      </trkpt>
      <trkpt lat="48.04259" lon="6.78819">
        <ele>927</ele>
        <time>2017-10-24T03:37:53Z</time>
      </trkpt>
      <trkpt lat="48.04265" lon="6.78834">
        <ele>926</ele>
        <time>2017-10-24T03:39:53Z</time>
      </trkpt>
      <trkpt lat="48.04254" lon="6.78877">
        <ele>929</ele>
        <time>2017-10-24T03:41:53Z</time>
      </trkpt>
      <trkpt lat="48.04259" lon="6.78931">
        <ele>929</ele>
        <time>2017-10-24T03:43:53Z</time>
      </trkpt>
      <trkpt lat="48.0427" lon="6.78983">
        <ele>931</ele>
        <time>2017-10-24T03:45:53Z</time>
      </trkpt>
      <trkpt lat="48.04282" lon="6.79022">
        <ele>932</ele>
        <time>2017-10-24T03:47:53Z</time>
      </trkpt>
      <trkpt lat="48.04296" lon="6.79074">
        <ele>936</ele>
        <time>2017-10-24T03:49:53Z</time>
      </trkpt>
      <trkpt lat="48.04316" lon="6.79139">
        <ele>940</ele>
        <time>2017-10-24T03:51:53Z</time>
      </trkpt>
      <trkpt lat="48.04336" lon="6.79187">
        <ele>941</ele>
        <time>2017-10-24T03:53:53Z</time>
      </trkpt>
      <trkpt lat="48.04361" lon="6.79261">
        <ele>941</ele>
        <time>2017-10-24T03:55:53Z</time>
      </trkpt>
      <trkpt lat="48.04369" lon="6.79302">
        <ele>942</ele>
        <time>2017-10-24T03:57:53Z</time>
      </trkpt>
      <trkpt lat="48.04374" lon="6.79366">
        <ele>944</ele>
        <time>2017-10-24T03:59:53Z</time>
      </trkpt>
      <trkpt lat="48.04382" lon="6.79431">
        <ele>946</ele>
        <time>2017-10-24T04:01:53Z</time>
      </trkpt>
      <trkpt lat="48.04397" lon="6.79464">
        <ele>946</ele>
        <time>2017-10-24T04:03:53Z</time>
      </trkpt>
      <trkpt lat="48.04421" lon="6.7952">
        <ele>948</ele>
        <time>2017-10-24T04:05:53Z</time>
      </trkpt>
      <trkpt lat="48.04451" lon="6.79556">
        <ele>949</ele>
        <time>2017-10-24T04:07:53Z</time>
      </trkpt>
      <trkpt lat="48.04478" lon="6.79585">
        <ele>950</ele>
        <time>2017-10-24T04:09:53Z</time>
      </trkpt>
      <trkpt lat="48.0451" lon="6.7963">
        <ele>955</ele>
        <time>2017-10-24T04:11:53Z</time>
      </trkpt>
      <trkpt lat="48.04547" lon="6.79635">
        <ele>955</ele>
        <time>2017-10-24T04:13:53Z</time>
      </trkpt>
      <trkpt lat="48.04587" lon="6.79643">
        <ele>956</ele>
        <time>2017-10-24T04:15:53Z</time>
      </trkpt>
      <trkpt lat="48.04631" lon="6.79627">
        <ele>955</ele>
        <time>2017-10-24T04:17:53Z</time>
      </trkpt>
      <trkpt lat="48.04675" lon="6.79615">
        <ele>955</ele>
        <time>2017-10-24T04:19:53Z</time>
      </trkpt>
      <trkpt lat="48.04704" lon="6.79614">
        <ele>955</ele>
        <time>2017-10-24T04:21:53Z</time>
      </trkpt>
      <trkpt lat="48.04717" lon="6.79622">
        <ele>956</ele>
        <time>2017-10-24T04:23:53Z</time>
      </trkpt>
      <trkpt lat="48.04731" lon="6.79662">
        <ele>957</ele>
        <time>2017-10-24T04:25:53Z</time>
      </trkpt>
      <trkpt lat="48.04722" lon="6.79716">
        <ele>957</ele>
        <time>2017-10-24T04:27:53Z</time>
      </trkpt>
      <trkpt lat="48.04708" lon="6.79735">
        <ele>958</ele>
        <time>2017-10-24T04:29:53Z</time>
      </trkpt>
      <trkpt lat="48.04686" lon="6.79766">
        <ele>959</ele>
        <time>2017-10-24T04:31:53Z</time>
      </trkpt>
      <trkpt lat="48.04665" lon="6.79801">
        <ele>959</ele>
        <time>2017-10-24T04:33:53Z</time>
      </trkpt>
      <trkpt lat="48.04642" lon="6.79833">
        <ele>960</ele>
        <time>2017-10-24T04:35:53Z</time>
      </trkpt>
      <trkpt lat="48.04616" lon="6.79919">
        <ele>955</ele>
        <time>2017-10-24T04:37:53Z</time>
      </trkpt>
      <trkpt lat="48.04607" lon="6.79968">
        <ele>952</ele>
        <time>2017-10-24T04:39:53Z</time>
      </trkpt>
      <trkpt lat="48.04595" lon="6.80023">
        <ele>950</ele>
        <time>2017-10-24T04:41:53Z</time>
      </trkpt>
      <trkpt lat="48.04582" lon="6.80071">
        <ele>948</ele>
        <time>2017-10-24T04:43:53Z</time>
      </trkpt>
      <trkpt lat="48.04581" lon="6.8011">
        <ele>944</ele>
        <time>2017-10-24T04:45:53Z</time>
      </trkpt>
      <trkpt lat="48.04597" lon="6.80158">
        <ele>937</ele>
        <time>2017-10-24T04:47:53Z</time>
      </trkpt>
      <trkpt lat="48.04613" lon="6.80191">
        <ele>934</ele>
        <time>2017-10-24T04:49:53Z</time>
      </trkpt>
      <trkpt lat="48.04622" lon="6.80218">
        <ele>933</ele>
        <time>2017-10-24T04:51:53Z</time>
      </trkpt>
      <trkpt lat="48.04648" lon="6.80227">
        <ele>933</ele>
        <time>2017-10-24T04:53:53Z</time>
      </trkpt>
      <trkpt lat="48.04655" lon="6.80248">
        <ele>934</ele>
        <time>2017-10-24T04:55:53Z</time>
      </trkpt>
      <trkpt lat="48.04685" lon="6.80268">
        <ele>935</ele>
        <time>2017-10-24T04:57:53Z</time>
      </trkpt>
      <trkpt lat="48.04719" lon="6.80266">
        <ele>938</ele>
        <time>2017-10-24T04:59:53Z</time>
      </trkpt>
      <trkpt lat="48.04748" lon="6.80263">
        <ele>939</ele>
        <time>2017-10-24T05:01:53Z</time>
      </trkpt>
      <trkpt lat="48.04772" lon="6.80275">
        <ele>942</ele>
        <time>2017-10-24T05:03:53Z</time>
      </trkpt>
      <trkpt lat="48.04795" lon="6.80291">
        <ele>945</ele>
        <time>2017-10-24T05:05:53Z</time>
      </trkpt>
      <trkpt lat="48.04821" lon="6.80308">
        <ele>948</ele>
        <time>2017-10-24T05:07:53Z</time>
      </trkpt>
      <trkpt lat="48.04843" lon="6.8035">
        <ele>953</ele>
        <time>2017-10-24T05:09:53Z</time>
      </trkpt>
      <trkpt lat="48.04864" lon="6.8038">
        <ele>955</ele>
        <time>2017-10-24T05:11:53Z</time>
      </trkpt>
      <trkpt lat="48.04923" lon="6.80421">
        <ele>956</ele>
        <time>2017-10-24T05:13:53Z</time>
      </trkpt>
      <trkpt lat="48.04953" lon="6.80461">
        <ele>958</ele>
        <time>2017-10-24T05:15:53Z</time>
      </trkpt>
      <trkpt lat="48.04963" lon="6.80501">
        <ele>961</ele>
        <time>2017-10-24T05:17:53Z</time>
      </trkpt>
      <trkpt lat="48.04985" lon="6.80526">
        <ele>962</ele>
        <time>2017-10-24T05:19:53Z</time>
      </trkpt>
      <trkpt lat="48.05031" lon="6.8055">
        <ele>961</ele>
        <time>2017-10-24T05:21:53Z</time>
      </trkpt>
      <trkpt lat="48.05085" lon="6.80631">
        <ele>963</ele>
        <time>2017-10-24T05:23:53Z</time>
      </trkpt>
      <trkpt lat="48.05109" lon="6.80673">
        <ele>963</ele>
        <time>2017-10-24T05:25:53Z</time>
      </trkpt>
      <trkpt lat="48.05132" lon="6.80721">
        <ele>964</ele>
        <time>2017-10-24T05:27:53Z</time>
      </trkpt>
      <trkpt lat="48.05166" lon="6.80752">
        <ele>961</ele>
        <time>2017-10-24T05:29:53Z</time>
      </trkpt>
      <trkpt lat="48.05221" lon="6.80777">
        <ele>957</ele>
        <time>2017-10-24T05:31:53Z</time>
      </trkpt>
      <trkpt lat="48.05266" lon="6.80778">
        <ele>954</ele>
        <time>2017-10-24T05:33:53Z</time>
      </trkpt>
      <trkpt lat="48.05318" lon="6.8081">
        <ele>949</ele>
        <time>2017-10-24T05:35:53Z</time>
      </trkpt>
      <trkpt lat="48.0536" lon="6.8081">
        <ele>947</ele>
        <time>2017-10-24T05:37:53Z</time>
      </trkpt>
      <trkpt lat="48.05381" lon="6.80836">
        <ele>947</ele>
        <time>2017-10-24T05:39:53Z</time>
      </trkpt>
      <trkpt lat="48.05376" lon="6.80886">
        <ele>943</ele>
        <time>2017-10-24T05:41:53Z</time>
      </trkpt>
      <trkpt lat="48.05356" lon="6.80938">
        <ele>939</ele>
        <time>2017-10-24T05:43:53Z</time>
      </trkpt>
      <trkpt lat="48.0532" lon="6.80972">
        <ele>938</ele>
        <time>2017-10-24T05:45:53Z</time>
      </trkpt>
      <trkpt lat="48.0528" lon="6.81022">
        <ele>936</ele>
        <time>2017-10-24T05:47:53Z</time>
      </trkpt>
      <trkpt lat="48.05265" lon="6.81049">
        <ele>934</ele>
        <time>2017-10-24T05:49:53Z</time>
      </trkpt>
      <trkpt lat="48.05272" lon="6.81104">
        <ele>930</ele>
        <time>2017-10-24T05:51:53Z</time>
      </trkpt>
      <trkpt lat="48.05286" lon="6.81131">
        <ele>930</ele>
        <time>2017-10-24T05:53:53Z</time>
      </trkpt>
      <trkpt lat="48.05313" lon="6.81157">
        <ele>930</ele>
        <time>2017-10-24T05:55:53Z</time>
      </trkpt>
      <trkpt lat="48.05332" lon="6.81188">
        <ele>931</ele>
        <time>2017-10-24T05:57:53Z</time>
      </trkpt>
      <trkpt lat="48.05339" lon="6.81217">
        <ele>932</ele>
        <time>2017-10-24T05:59:53Z</time>
      </trkpt>
      <trkpt lat="48.05355" lon="6.81243">
        <ele>931</ele>
        <time>2017-10-24T06:01:53Z</time>
      </trkpt>
      <trkpt lat="48.05371" lon="6.81274">
        <ele>930</ele>
        <time>2017-10-24T06:03:53Z</time>
      </trkpt>
      <trkpt lat="48.05389" lon="6.8132">
        <ele>930</ele>
        <time>2017-10-24T06:05:53Z</time>
      </trkpt>
      <trkpt lat="48.05379" lon="6.8137">
        <ele>929</ele>
        <time>2017-10-24T06:07:53Z</time>
      </trkpt>
      <trkpt lat="48.05363" lon="6.81406">
        <ele>930</ele>
        <time>2017-10-24T06:09:53Z</time>
      </trkpt>
      <trkpt lat="48.05353" lon="6.81436">
        <ele>930</ele>
        <time>2017-10-24T06:11:53Z</time>
      </trkpt>
      <trkpt lat="48.05356" lon="6.81453">
        <ele>928</ele>
        <time>2017-10-24T06:13:53Z</time>
      </trkpt>
      <trkpt lat="48.05371" lon="6.8145">
        <ele>927</ele>
        <time>2017-10-24T06:15:53Z</time>
      </trkpt>
      <trkpt lat="48.05384" lon="6.81448">
        <ele>926</ele>
        <time>2017-10-24T06:17:53Z</time>
      </trkpt>
      <trkpt lat="48.054" lon="6.81446">
        <ele>924</ele>
        <time>2017-10-24T06:19:53Z</time>
      </trkpt>
      <trkpt lat="48.05412" lon="6.8145">
        <ele>923</ele>
        <time>2017-10-24T06:21:53Z</time>
      </trkpt>
      <trkpt lat="48.0542" lon="6.8146">
        <ele>922</ele>
        <time>2017-10-24T06:23:53Z</time>
      </trkpt>
      <trkpt lat="48.05428" lon="6.81477">
        <ele>922</ele>
        <time>2017-10-24T06:25:53Z</time>
      </trkpt>
      <trkpt lat="48.05444" lon="6.8149">
        <ele>924</ele>
        <time>2017-10-24T06:27:53Z</time>
      </trkpt>
      <trkpt lat="48.05461" lon="6.815">
        <ele>925</ele>
        <time>2017-10-24T06:29:53Z</time>
      </trkpt>
      <trkpt lat="48.05474" lon="6.81522">
        <ele>927</ele>
        <time>2017-10-24T06:31:53Z</time>
      </trkpt>
      <trkpt lat="48.05474" lon="6.8154">
        <ele>928</ele>
        <time>2017-10-24T06:33:53Z</time>
      </trkpt>
      <trkpt lat="48.05467" lon="6.81561">
        <ele>928</ele>
        <time>2017-10-24T06:35:53Z</time>
      </trkpt>
      <trkpt lat="48.05461" lon="6.81594">
        <ele>929</ele>
        <time>2017-10-24T06:37:53Z</time>
      </trkpt>
      <trkpt lat="48.05448" lon="6.81649">
        <ele>930</ele>
        <time>2017-10-24T06:39:53Z</time>
      </trkpt>
      <trkpt lat="48.05443" lon="6.81685">
        <ele>931</ele>
        <time>2017-10-24T06:41:53Z</time>
      </trkpt>
      <trkpt lat="48.05439" lon="6.81719">
        <ele>932</ele>
        <time>2017-10-24T06:43:53Z</time>
      </trkpt>
      <trkpt lat="48.05432" lon="6.81749">
        <ele>933</ele>
        <time>2017-10-24T06:45:53Z</time>
      </trkpt>
      <trkpt lat="48.05429" lon="6.81774">
        <ele>933</ele>
        <time>2017-10-24T06:47:53Z</time>
      </trkpt>
      <trkpt lat="48.05428" lon="6.81793">
        <ele>933</ele>
        <time>2017-10-24T06:49:53Z</time>
      </trkpt>
      <trkpt lat="48.05426" lon="6.81856">
        <ele>934</ele>
        <time>2017-10-24T06:51:53Z</time>
      </trkpt>
      <trkpt lat="48.05424" lon="6.81879">
        <ele>934</ele>
        <time>2017-10-24T06:53:53Z</time>
      </trkpt>
      <trkpt lat="48.05418" lon="6.81955">
        <ele>933</ele>
        <time>2017-10-24T06:55:53Z</time>
      </trkpt>
      <trkpt lat="48.05416" lon="6.82014">
        <ele>933</ele>
        <time>2017-10-24T06:57:53Z</time>
      </trkpt>
      <trkpt lat="48.05412" lon="6.82055">
        <ele>936</ele>
        <time>2017-10-24T06:59:53Z</time>
      </trkpt>
      <trkpt lat="48.05409" lon="6.82094">
        <ele>938</ele>
        <time>2017-10-24T07:01:53Z</time>
      </trkpt>
      <trkpt lat="48.05404" lon="6.82133">
        <ele>940</ele>
        <time>2017-10-24T07:03:53Z</time>
      </trkpt>
      <trkpt lat="48.05401" lon="6.82172">
        <ele>942</ele>
        <time>2017-10-24T07:05:53Z</time>
      </trkpt>
      <trkpt lat="48.05399" lon="6.82207">
        <ele>944</ele>
        <time>2017-10-24T07:07:53Z</time>
      </trkpt>
      <trkpt lat="48.05407" lon="6.8225">
        <ele>947</ele>
        <time>2017-10-24T07:09:53Z</time>
      </trkpt>
      <trkpt lat="48.05414" lon="6.82256">
        <ele>948</ele>
        <time>2017-10-24T07:11:53Z</time>
      </trkpt>
      <trkpt lat="48.05417" lon="6.82269">
        <ele>950</ele>
        <time>2017-10-24T07:13:53Z</time>
      </trkpt>
      <trkpt lat="48.05423" lon="6.82317">
        <ele>957</ele>
        <time>2017-10-24T07:15:53Z</time>
      </trkpt>
      <trkpt lat="48.05438" lon="6.82378">
        <ele>964</ele>
        <time>2017-10-24T07:17:53Z</time>
      </trkpt>
      <trkpt lat="48.05459" lon="6.82446">
        <ele>968</ele>
        <time>2017-10-24T07:19:53Z</time>
      </trkpt>
      <trkpt lat="48.05477" lon="6.82481">
        <ele>968</ele>
        <time>2017-10-24T07:21:53Z</time>
      </trkpt>
      <trkpt lat="48.055" lon="6.82529">
        <ele>969</ele>
        <time>2017-10-24T07:23:53Z</time>
      </trkpt>
      <trkpt lat="48.0552" lon="6.82564">
        <ele>966</ele>
        <time>2017-10-24T07:25:53Z</time>
      </trkpt>
      <trkpt lat="48.05534" lon="6.82597">
        <ele>963</ele>
        <time>2017-10-24T07:27:53Z</time>
      </trkpt>
      <trkpt lat="48.05543" lon="6.82621">
        <ele>961</ele>
        <time>2017-10-24T07:29:53Z</time>
      </trkpt>
      <trkpt lat="48.05555" lon="6.82668">
        <ele>957</ele>
        <time>2017-10-24T07:31:53Z</time>
      </trkpt>
      <trkpt lat="48.05561" lon="6.82694">
        <ele>954</ele>
        <time>2017-10-24T07:33:53Z</time>
      </trkpt>
      <trkpt lat="48.05581" lon="6.82775">
        <ele>948</ele>
        <time>2017-10-24T07:35:53Z</time>
      </trkpt>
      <trkpt lat="48.05594" lon="6.82814">
        <ele>945</ele>
        <time>2017-10-24T07:37:53Z</time>
      </trkpt>
      <trkpt lat="48.05603" lon="6.82845">
        <ele>943</ele>
        <time>2017-10-24T07:39:53Z</time>
      </trkpt>
      <trkpt lat="48.05599" lon="6.82873">
        <ele>942</ele>
        <time>2017-10-24T07:41:53Z</time>
      </trkpt>
      <trkpt lat="48.05596" lon="6.82891">
        <ele>941</ele>
        <time>2017-10-24T07:43:53Z</time>
      </trkpt>
      <trkpt lat="48.05592" lon="6.82911">
        <ele>939</ele>
        <time>2017-10-24T07:45:53Z</time>
      </trkpt>
      <trkpt lat="48.05594" lon="6.82934">
        <ele>937</ele>
        <time>2017-10-24T07:47:53Z</time>
      </trkpt>
      <trkpt lat="48.05593" lon="6.82968">
        <ele>934</ele>
        <time>2017-10-24T07:49:53Z</time>
      </trkpt>
      <trkpt lat="48.05595" lon="6.83001">
        <ele>932</ele>
        <time>2017-10-24T07:51:53Z</time>
      </trkpt>
      <trkpt lat="48.05605" lon="6.83026">
        <ele>930</ele>
        <time>2017-10-24T07:53:53Z</time>
      </trkpt>
      <trkpt lat="48.05626" lon="6.83063">
        <ele>929</ele>
        <time>2017-10-24T07:55:53Z</time>
      </trkpt>
      <trkpt lat="48.05635" lon="6.83082">
        <ele>928</ele>
        <time>2017-10-24T07:57:53Z</time>
      </trkpt>
      <trkpt lat="48.05655" lon="6.83114">
        <ele>925</ele>
        <time>2017-10-24T07:59:53Z</time>
      </trkpt>
      <trkpt lat="48.05694" lon="6.83165">
        <ele>921</ele>
        <time>2017-10-24T08:01:53Z</time>
      </trkpt>
      <trkpt lat="48.0574" lon="6.8319">
        <ele>921</ele>
        <time>2017-10-24T08:03:53Z</time>
      </trkpt>
      <trkpt lat="48.05761" lon="6.83214">
        <ele>919</ele>
        <time>2017-10-24T08:05:53Z</time>
      </trkpt>
      <trkpt lat="48.05787" lon="6.83242">
        <ele>916</ele>
        <time>2017-10-24T08:07:53Z</time>
      </trkpt>
      <trkpt lat="48.05811" lon="6.83264">
        <ele>915</ele>
        <time>2017-10-24T08:09:53Z</time>
      </trkpt>
      <trkpt lat="48.05826" lon="6.83287">
        <ele>913</ele>
        <time>2017-10-24T08:11:53Z</time>
      </trkpt>
      <trkpt lat="48.05838" lon="6.83306">
        <ele>912</ele>
        <time>2017-10-24T08:13:53Z</time>
      </trkpt>
      <trkpt lat="48.05861" lon="6.83346">
        <ele>910</ele>
        <time>2017-10-24T08:15:53Z</time>
      </trkpt>
      <trkpt lat="48.05877" lon="6.83431">
        <ele>903</ele>
        <time>2017-10-24T08:17:53Z</time>
      </trkpt>
      <trkpt lat="48.05886" lon="6.83492">
        <ele>898</ele>
        <time>2017-10-24T08:19:53Z</time>
      </trkpt>
      <trkpt lat="48.05889" lon="6.83502">
        <ele>897</ele>
        <time>2017-10-24T08:21:53Z</time>
      </trkpt>
      <trkpt lat="48.05914" lon="6.83539">
        <ele>895</ele>
        <time>2017-10-24T08:23:53Z</time>
      </trkpt>
      <trkpt lat="48.05934" lon="6.83562">
        <ele>891</ele>
        <time>2017-10-24T08:25:53Z</time>
      </trkpt>
      <trkpt lat="48.05937" lon="6.83589">
        <ele>886</ele>
        <time>2017-10-24T08:27:53Z</time>
      </trkpt>
      <trkpt lat="48.05923" lon="6.83613">
        <ele>883</ele>
        <time>2017-10-24T08:29:53Z</time>
      </trkpt>
      <trkpt lat="48.05904" lon="6.8364">
        <ele>878</ele>
        <time>2017-10-24T08:31:53Z</time>
      </trkpt>
      <trkpt lat="48.05885" lon="6.83686">
        <ele>872</ele>
        <time>2017-10-24T08:33:53Z</time>
      </trkpt>
      <trkpt lat="48.0587" lon="6.83731">
        <ele>867</ele>
        <time>2017-10-24T08:35:53Z</time>
      </trkpt>
      <trkpt lat="48.0586" lon="6.83754">
        <ele>865</ele>
        <time>2017-10-24T08:37:53Z</time>
      </trkpt>
      <trkpt lat="48.05891" lon="6.83758">
        <ele>866</ele>
        <time>2017-10-24T08:39:53Z</time>
      </trkpt>
      <trkpt lat="48.05924" lon="6.83767">
        <ele>865</ele>
        <time>2017-10-24T08:41:53Z</time>
      </trkpt>
      <trkpt lat="48.05944" lon="6.83791">
        <ele>861</ele>
        <time>2017-10-24T08:43:53Z</time>
      </trkpt>
      <trkpt lat="48.05978" lon="6.83806">
        <ele>856</ele>
        <time>2017-10-24T08:45:53Z</time>
      </trkpt>
      <trkpt lat="48.0601" lon="6.83824">
        <ele>851</ele>
        <time>2017-10-24T08:47:53Z</time>
      </trkpt>
      <trkpt lat="48.06048" lon="6.83779">
        <ele>847</ele>
        <time>2017-10-24T08:49:53Z</time>
      </trkpt>
      <trkpt lat="48.06084" lon="6.83744">
        <ele>842</ele>
        <time>2017-10-24T08:51:53Z</time>
      </trkpt>
      <trkpt lat="48.06104" lon="6.83714">
        <ele>841</ele>
        <time>2017-10-24T08:53:53Z</time>
      </trkpt>
      <trkpt lat="48.0614" lon="6.83711">
        <ele>832</ele>
        <time>2017-10-24T08:55:53Z</time>
      </trkpt>
      <trkpt lat="48.06162" lon="6.83736">
        <ele>824</ele>
        <time>2017-10-24T08:57:53Z</time>
      </trkpt>
      <trkpt lat="48.06178" lon="6.83763">
        <ele>820</ele>
        <time>2017-10-24T08:59:53Z</time>
      </trkpt>
      <trkpt lat="48.06205" lon="6.83761">
        <ele>814</ele>
        <time>2017-10-24T09:01:53Z</time>
      </trkpt>
      <trkpt lat="48.0624" lon="6.83751">
        <ele>807</ele>
        <time>2017-10-24T09:03:53Z</time>
      </trkpt>
      <trkpt lat="48.06259" lon="6.83745">
        <ele>804</ele>
        <time>2017-10-24T09:05:53Z</time>
      </trkpt>
      <trkpt lat="48.06276" lon="6.83744">
        <ele>801</ele>
        <time>2017-10-24T09:07:53Z</time>
      </trkpt>
      <trkpt lat="48.06317" lon="6.83806">
        <ele>792</ele>
        <time>2017-10-24T09:09:53Z</time>
      </trkpt>
      <trkpt lat="48.06377" lon="6.83806">
        <ele>783</ele>
        <time>2017-10-24T09:11:53Z</time>
      </trkpt>
      <trkpt lat="48.06395" lon="6.83837">
        <ele>781</ele>
        <time>2017-10-24T09:13:53Z</time>
      </trkpt>
      <trkpt lat="48.06433" lon="6.83812">
        <ele>777</ele>
        <time>2017-10-24T09:15:53Z</time>
      </trkpt>
      <trkpt lat="48.06467" lon="6.83813">
        <ele>774</ele>
        <time>2017-10-24T09:17:53Z</time>
      </trkpt>
      <trkpt lat="48.06509" lon="6.83819">
        <ele>770</ele>
        <time>2017-10-24T09:19:53Z</time>
      </trkpt>
      <trkpt lat="48.06532" lon="6.83829">
        <ele>766</ele>
        <time>2017-10-24T09:21:53Z</time>
      </trkpt>
      <trkpt lat="48.06551" lon="6.83852">
        <ele>763</ele>
        <time>2017-10-24T09:23:53Z</time>
      </trkpt>
      <trkpt lat="48.06566" lon="6.83849">
        <ele>760</ele>
        <time>2017-10-24T09:25:53Z</time>
      </trkpt>
      <trkpt lat="48.06579" lon="6.83834">
        <ele>758</ele>
        <time>2017-10-24T09:27:53Z</time>
      </trkpt>
      <trkpt lat="48.06597" lon="6.83807">
        <ele>755</ele>
        <time>2017-10-24T09:29:53Z</time>
      </trkpt>
      <trkpt lat="48.06616" lon="6.83795">
        <ele>750</ele>
        <time>2017-10-24T09:31:53Z</time>
      </trkpt>
      <trkpt lat="48.06638" lon="6.83806">
        <ele>742</ele>
        <time>2017-10-24T09:33:53Z</time>
      </trkpt>
      <trkpt lat="48.06661" lon="6.83826">
        <ele>731</ele>
        <time>2017-10-24T09:35:53Z</time>
      </trkpt>
      <trkpt lat="48.06661" lon="6.83864">
        <ele>728</ele>
        <time>2017-10-24T09:37:53Z</time>
      </trkpt>
      <trkpt lat="48.06671" lon="6.83893">
        <ele>721</ele>
        <time>2017-10-24T09:39:53Z</time>
      </trkpt>
      <trkpt lat="48.06691" lon="6.839">
        <ele>710</ele>
        <time>2017-10-24T09:41:53Z</time>
      </trkpt>
      <trkpt lat="48.06725" lon="6.83907">
        <ele>691</ele>
        <time>2017-10-24T09:43:53Z</time>
      </trkpt>
      <trkpt lat="48.06734" lon="6.83936">
        <ele>685</ele>
        <time>2017-10-24T09:45:53Z</time>
      </trkpt>
      <trkpt lat="48.06742" lon="6.83958">
        <ele>681</ele>
        <time>2017-10-24T09:47:53Z</time>
      </trkpt>
      <trkpt lat="48.06743" lon="6.83992">
        <ele>681</ele>
        <time>2017-10-24T09:49:53Z</time>
      </trkpt>
      <trkpt lat="48.0675" lon="6.84024">
        <ele>676</ele>
        <time>2017-10-24T09:51:53Z</time>
      </trkpt>
      <trkpt lat="48.06752" lon="6.84064">
        <ele>674</ele>
        <time>2017-10-24T09:53:53Z</time>
      </trkpt>
      <trkpt lat="48.06755" lon="6.84111">
        <ele>673</ele>
        <time>2017-10-24T09:55:53Z</time>
      </trkpt>
      <trkpt lat="48.06758" lon="6.84166">
        <ele>671</ele>
        <time>2017-10-24T09:57:53Z</time>
      </trkpt>
      <trkpt lat="48.06759" lon="6.84205">
        <ele>676</ele>
        <time>2017-10-24T09:59:53Z</time>
      </trkpt>
      <trkpt lat="48.0675" lon="6.84274">
        <ele>684</ele>
        <time>2017-10-24T10:01:53Z</time>
      </trkpt>
      <trkpt lat="48.06746" lon="6.84328">
        <ele>686</ele>
        <time>2017-10-24T10:03:53Z</time>
      </trkpt>
      <trkpt lat="48.0674" lon="6.84373">
        <ele>685</ele>
        <time>2017-10-24T10:05:53Z</time>
      </trkpt>
      <trkpt lat="48.06735" lon="6.84405">
        <ele>685</ele>
        <time>2017-10-24T10:07:53Z</time>
      </trkpt>
      <trkpt lat="48.06732" lon="6.8445">
        <ele>685</ele>
        <time>2017-10-24T10:09:53Z</time>
      </trkpt>
      <trkpt lat="48.06734" lon="6.84494">
        <ele>685</ele>
        <time>2017-10-24T10:11:53Z</time>
      </trkpt>
      <trkpt lat="48.06731" lon="6.84518">
        <ele>686</ele>
        <time>2017-10-24T10:13:53Z</time>
      </trkpt>
      <trkpt lat="48.06732" lon="6.84561">
        <ele>685</ele>
        <time>2017-10-24T10:15:53Z</time>
      </trkpt>
      <trkpt lat="48.06748" lon="6.84612">
        <ele>676</ele>
        <time>2017-10-24T10:17:53Z</time>
      </trkpt>
      <trkpt lat="48.06742" lon="6.84674">
        <ele>670</ele>
        <time>2017-10-24T10:19:53Z</time>
      </trkpt>
      <trkpt lat="48.0672" lon="6.84699">
        <ele>673</ele>
        <time>2017-10-24T10:21:53Z</time>
      </trkpt>
      <trkpt lat="48.067" lon="6.84716">
        <ele>675</ele>
        <time>2017-10-24T10:23:53Z</time>
      </trkpt>
      <trkpt lat="48.06672" lon="6.84742">
        <ele>677</ele>
        <time>2017-10-24T10:25:53Z</time>
      </trkpt>
      <trkpt lat="48.06652" lon="6.84775">
        <ele>682</ele>
        <time>2017-10-24T10:27:53Z</time>
      </trkpt>
      <trkpt lat="48.06638" lon="6.84801">
        <ele>687</ele>
        <time>2017-10-24T10:29:53Z</time>
      </trkpt>
      <trkpt lat="48.06635" lon="6.84831">
        <ele>685</ele>
        <time>2017-10-24T10:31:53Z</time>
      </trkpt>
      <trkpt lat="48.06624" lon="6.84859">
        <ele>687</ele>
        <time>2017-10-24T10:33:53Z</time>
      </trkpt>
      <trkpt lat="48.0659" lon="6.84931">
        <ele>686</ele>
        <time>2017-10-24T10:35:53Z</time>
      </trkpt>
      <trkpt lat="48.06574" lon="6.84954">
        <ele>686</ele>
        <time>2017-10-24T10:37:53Z</time>
      </trkpt>
      <trkpt lat="48.06566" lon="6.84988">
        <ele>681</ele>
        <time>2017-10-24T10:39:53Z</time>
      </trkpt>
      <trkpt lat="48.06562" lon="6.8502">
        <ele>677</ele>
        <time>2017-10-24T10:41:53Z</time>
      </trkpt>
      <trkpt lat="48.06545" lon="6.85065">
        <ele>675</ele>
        <time>2017-10-24T10:43:53Z</time>
      </trkpt>
      <trkpt lat="48.06535" lon="6.85103">
        <ele>674</ele>
        <time>2017-10-24T10:45:53Z</time>
      </trkpt>
      <trkpt lat="48.0652" lon="6.85131">
        <ele>675</ele>
        <time>2017-10-24T10:47:53Z</time>
      </trkpt>
      <trkpt lat="48.06506" lon="6.85169">
        <ele>674</ele>
        <time>2017-10-24T10:49:53Z</time>
      </trkpt>
      <trkpt lat="48.06492" lon="6.85206">
        <ele>670</ele>
        <time>2017-10-24T10:51:53Z</time>
      </trkpt>
      <trkpt lat="48.06482" lon="6.85231">
        <ele>666</ele>
        <time>2017-10-24T10:53:53Z</time>
      </trkpt>
      <trkpt lat="48.06452" lon="6.85241">
        <ele>664</ele>
        <time>2017-10-24T10:55:53Z</time>
      </trkpt>
    </trkseg>
  </trk>
</gpx>